createdAt,value
2018-10-21T00:01:33.911Z,22.10
2018-10-21T00:04:02.244Z,21.20
2018-10-21T00:06:30.583Z,20.67
2018-10-21T00:08:58.951Z,22.73
2018-10-21T00:11:27.268Z,21.00
2018-10-21T00:13:55.591Z,19.90
2018-10-21T00:16:23.932Z,22.60
2018-10-21T00:18:52.565Z,24.63
2018-10-21T00:21:20.946Z,20.83
2018-10-21T00:23:49.295Z,21.90
2018-10-21T00:26:17.672Z,18.17
2018-10-21T00:28:45.988Z,20.00
2018-10-21T00:31:14.383Z,18.70
2018-10-21T00:33:42.748Z,20.03
2018-10-21T00:36:11.087Z,18.03
2018-10-21T00:38:39.452Z,17.40
2018-10-21T00:41:07.793Z,23.97
2018-10-21T00:43:36.156Z,23.60
2018-10-21T00:46:04.867Z,17.57
2018-10-21T00:48:33.208Z,19.10
2018-10-21T00:51:01.633Z,22.47
2018-10-21T00:53:29.992Z,22.13
2018-10-21T00:55:58.332Z,18.63
2018-10-21T00:58:26.647Z,20.00
2018-10-21T01:00:54.969Z,22.07
2018-10-21T01:03:23.295Z,21.83
2018-10-21T01:05:51.584Z,20.10
2018-10-21T01:08:20.120Z,20.30
2018-10-21T01:10:48.451Z,21.53
2018-10-21T01:13:16.800Z,22.17
2018-10-21T01:15:45.107Z,19.37
2018-10-21T01:18:13.434Z,27.30
2018-10-21T01:20:41.814Z,19.10
2018-10-21T01:23:10.115Z,23.17
2018-10-21T01:25:38.438Z,22.40
2018-10-21T01:28:06.844Z,17.37
2018-10-21T01:30:35.192Z,16.83
2018-10-21T01:33:03.600Z,17.73
2018-10-21T01:35:31.956Z,17.53
2018-10-21T01:38:00.293Z,18.67
2018-10-21T01:40:47.214Z,20.17
2018-10-21T01:43:16.719Z,17.27
2018-10-21T01:45:45.248Z,19.97
2018-10-21T01:48:14.801Z,18.47
2018-10-21T01:50:43.104Z,20.47
2018-10-21T01:53:12.383Z,20.27
2018-10-21T01:55:40.727Z,18.40
2018-10-21T01:58:09.134Z,20.23
2018-10-21T02:00:37.968Z,16.50
2018-10-21T02:03:06.351Z,17.57
2018-10-21T02:05:35.276Z,20.47
2018-10-21T02:08:03.641Z,18.10
2018-10-21T02:10:31.988Z,17.93
2018-10-21T02:13:00.354Z,17.20
2018-10-21T02:15:28.676Z,16.17
2018-10-21T02:17:57.031Z,18.13
2018-10-21T02:20:25.996Z,17.37
2018-10-21T02:22:54.324Z,18.67
2018-10-21T02:25:22.762Z,17.27
2018-10-21T02:27:51.840Z,14.43
2018-10-21T02:30:22.258Z,16.37
2018-10-21T02:32:51.180Z,19.90
2018-10-21T02:35:19.905Z,20.03
2018-10-21T02:37:48.474Z,20.00
2018-10-21T02:41:29.762Z,15.90
2018-10-21T02:43:58.070Z,18.47
2018-10-21T02:46:26.620Z,28.10
2018-10-21T02:48:55.862Z,18.10
2018-10-21T02:51:24.129Z,17.27
2018-10-21T02:53:52.593Z,19.37
2018-10-21T02:56:20.887Z,19.90
2018-10-21T02:58:49.206Z,19.33
2018-10-21T03:01:17.512Z,18.97
2018-10-21T03:03:45.801Z,20.20
2018-10-21T03:06:14.097Z,18.80
2018-10-21T03:08:42.370Z,18.67
2018-10-21T03:11:10.651Z,19.43
2018-10-21T03:13:38.906Z,17.67
2018-10-21T03:16:07.180Z,17.70
2018-10-21T03:18:35.461Z,19.43
2018-10-21T03:21:04.443Z,19.57
2018-10-21T03:23:33.137Z,21.47
2018-10-21T03:26:01.738Z,18.53
2018-10-21T03:28:30.371Z,21.70
2018-10-21T03:30:58.905Z,22.73
2018-10-21T03:33:27.475Z,16.33
2018-10-21T03:35:55.523Z,19.63
2018-10-21T03:38:23.816Z,21.37
2018-10-21T03:40:52.077Z,18.80
2018-10-21T03:43:20.375Z,20.37
2018-10-21T03:45:48.642Z,19.57
2018-10-21T03:48:16.919Z,22.17
2018-10-21T03:50:45.218Z,22.10
2018-10-21T03:53:13.461Z,20.67
2018-10-21T03:55:42.710Z,20.40
2018-10-21T03:58:11.236Z,22.07
2018-10-21T04:00:39.518Z,23.10
2018-10-21T04:03:08.105Z,27.77
2018-10-21T04:05:36.815Z,22.37
2018-10-21T04:08:05.225Z,22.30
2018-10-21T04:10:33.638Z,18.77
2018-10-21T04:13:01.962Z,24.63
2018-10-21T04:15:30.416Z,19.23
2018-10-21T04:17:58.644Z,25.20
2018-10-21T04:20:27.137Z,23.57
2018-10-21T04:22:59.496Z,26.53
2018-10-21T04:25:28.821Z,25.10
2018-10-21T04:27:57.947Z,22.07
2018-10-21T04:30:29.168Z,23.00
2018-10-21T04:34:00.837Z,23.00
2018-10-21T04:36:31.480Z,22.10
2018-10-21T04:39:35.951Z,21.23
2018-10-21T04:42:04.254Z,19.57
2018-10-21T04:44:32.531Z,21.73
2018-10-21T04:47:01.013Z,23.30
2018-10-21T04:49:29.115Z,21.80
2018-10-21T04:51:57.451Z,29.43
2018-10-21T04:54:26.224Z,25.27
2018-10-21T04:56:54.480Z,28.17
2018-10-21T04:59:22.945Z,24.33
2018-10-21T05:01:51.236Z,24.80
2018-10-21T05:04:19.517Z,21.60
2018-10-21T05:06:47.834Z,30.67
2018-10-21T05:09:16.089Z,31.53
2018-10-21T05:11:44.334Z,33.40
2018-10-21T05:14:12.640Z,29.67
2018-10-21T05:16:40.943Z,33.30
2018-10-21T05:19:09.175Z,25.50
2018-10-21T05:21:37.474Z,29.30
2018-10-21T05:24:06.074Z,32.47
2018-10-21T05:26:34.293Z,31.70
2018-10-21T05:29:03.644Z,28.57
2018-10-21T05:31:31.927Z,26.97
2018-10-21T05:34:00.244Z,28.87
2018-10-21T05:36:28.478Z,20.50
2018-10-21T05:38:57.176Z,29.50
2018-10-21T05:41:25.464Z,24.37
2018-10-21T05:43:53.705Z,28.90
2018-10-21T05:46:29.300Z,28.90
2018-10-21T05:48:57.584Z,23.57
2018-10-21T05:51:25.837Z,22.03
2018-10-21T05:53:54.085Z,28.40
2018-10-21T05:56:22.625Z,26.23
2018-10-21T05:58:50.924Z,32.13
2018-10-21T06:01:19.191Z,24.93
2018-10-21T06:03:47.600Z,27.90
2018-10-21T06:06:15.879Z,26.70
2018-10-21T06:08:44.136Z,29.63
2018-10-21T06:11:12.430Z,30.00
2018-10-21T06:13:40.693Z,25.27
2018-10-21T06:16:09.047Z,27.73
2018-10-21T06:18:37.225Z,29.33
2018-10-21T06:21:06.133Z,30.77
2018-10-21T06:23:34.413Z,28.10
2018-10-21T06:26:02.677Z,24.83
2018-10-21T06:28:30.980Z,23.60
2018-10-21T06:30:59.241Z,28.07
2018-10-21T06:33:27.668Z,27.73
2018-10-21T06:35:55.958Z,30.87
2018-10-21T06:38:24.237Z,27.40
2018-10-21T06:40:52.487Z,31.63
2018-10-21T06:43:20.797Z,30.63
2018-10-21T06:45:49.039Z,27.63
2018-10-21T06:48:17.348Z,32.50
2018-10-21T06:50:45.590Z,31.07
2018-10-21T06:53:13.836Z,33.30
2018-10-21T06:55:42.107Z,33.07
2018-10-21T06:58:10.377Z,34.53
2018-10-21T07:00:38.645Z,32.50
2018-10-21T07:03:06.908Z,36.47
2018-10-21T07:06:19.061Z,29.53
2018-10-21T07:08:48.049Z,32.97
2018-10-21T07:11:16.340Z,33.83
2018-10-21T07:13:44.772Z,38.90
2018-10-21T07:16:13.323Z,35.57
2018-10-21T07:18:42.161Z,39.27
2018-10-21T07:21:10.464Z,37.80
2018-10-21T07:23:39.116Z,41.47
2018-10-21T07:26:07.378Z,41.00
2018-10-21T07:28:35.693Z,43.87
2018-10-21T07:31:04.172Z,42.20
2018-10-21T07:33:32.433Z,49.73
2018-10-21T07:36:00.712Z,40.00
2018-10-21T07:38:28.965Z,42.07
2018-10-21T07:40:57.258Z,46.87
2018-10-21T07:43:25.518Z,47.33
2018-10-21T07:45:53.817Z,47.53
2018-10-21T07:48:22.099Z,50.17
2018-10-21T07:50:50.376Z,45.17
2018-10-21T07:53:18.726Z,50.27
2018-10-21T07:55:47.038Z,50.73
2018-10-21T07:58:15.268Z,48.93
2018-10-21T08:00:43.701Z,47.50
2018-10-21T08:03:11.945Z,47.10
2018-10-21T08:05:51.485Z,48.90
2018-10-21T08:08:23.842Z,54.73
2018-10-21T08:10:52.258Z,48.43
2018-10-21T08:13:21.777Z,51.63
2018-10-21T08:15:50.263Z,49.33
2018-10-21T08:18:18.583Z,52.47
2018-10-21T08:20:48.146Z,44.57
2018-10-21T08:23:17.477Z,57.43
2018-10-21T08:25:47.161Z,50.83
2018-10-21T08:28:15.693Z,52.80
2018-10-21T08:30:43.964Z,52.47
2018-10-21T08:33:12.262Z,51.87
2018-10-21T08:35:40.565Z,50.87
2018-10-21T08:38:08.973Z,52.60
2018-10-21T08:40:37.397Z,51.93
2018-10-21T08:43:05.811Z,51.90
2018-10-21T08:45:34.081Z,47.70
2018-10-21T08:48:02.404Z,53.23
2018-10-21T08:50:30.646Z,50.33
2018-10-21T08:52:58.892Z,53.67
2018-10-21T08:55:27.187Z,50.13
2018-10-21T08:57:55.506Z,54.90
2018-10-21T09:00:23.844Z,53.80
2018-10-21T09:02:52.090Z,53.63
2018-10-21T09:05:20.398Z,57.10
2018-10-21T09:07:48.661Z,51.17
2018-10-21T09:10:17.952Z,55.87
2018-10-21T09:12:46.157Z,55.83
2018-10-21T09:15:15.808Z,58.03
2018-10-21T09:17:44.045Z,54.80
2018-10-21T09:20:14.136Z,54.20
2018-10-21T09:22:42.594Z,61.87
2018-10-21T09:25:11.883Z,59.27
2018-10-21T09:27:40.996Z,61.63
2018-10-21T09:30:10.901Z,60.63
2018-10-21T09:32:39.229Z,61.37
2018-10-21T09:35:09.122Z,63.63
2018-10-21T09:37:37.409Z,58.57
2018-10-21T09:40:07.247Z,65.60
2018-10-21T09:42:35.484Z,63.37
2018-10-21T09:45:03.871Z,61.10
2018-10-21T09:47:32.143Z,55.63
2018-10-21T09:50:00.538Z,63.97
2018-10-21T09:52:28.787Z,64.47
2018-10-21T09:54:57.196Z,59.67
2018-10-21T09:57:25.445Z,62.90
2018-10-21T09:59:53.749Z,64.20
2018-10-21T10:02:27.369Z,63.50
2018-10-21T10:04:55.737Z,62.87
2018-10-21T10:07:24.018Z,58.10
2018-10-21T10:09:52.437Z,58.57
2018-10-21T10:12:22.042Z,61.80
2018-10-21T10:14:50.317Z,65.17
2018-10-21T10:17:18.598Z,59.37
2018-10-21T10:19:46.906Z,58.00
2018-10-21T10:22:15.314Z,58.27
2018-10-21T10:24:43.445Z,56.83
2018-10-21T10:27:11.822Z,53.23
2018-10-21T10:29:40.176Z,52.13
2018-10-21T10:32:08.456Z,52.30
2018-10-21T10:34:36.733Z,52.73
2018-10-21T10:37:05.220Z,52.13
2018-10-21T10:39:33.470Z,51.83
2018-10-21T10:42:01.862Z,49.57
2018-10-21T10:44:30.054Z,48.27
2018-10-21T10:46:58.316Z,52.10
2018-10-21T10:49:26.582Z,48.80
2018-10-21T10:51:54.880Z,44.87
2018-10-21T10:54:23.152Z,52.90
2018-10-21T10:56:51.373Z,48.50
2018-10-21T10:59:19.637Z,50.97
2018-10-21T11:01:48.029Z,48.93
2018-10-21T11:04:16.250Z,46.00
2018-10-21T11:06:44.376Z,48.90
2018-10-21T11:09:12.708Z,45.57
2018-10-21T11:11:41.085Z,42.97
2018-10-21T11:14:09.416Z,45.53
2018-10-21T11:16:37.672Z,48.47
2018-10-21T11:19:06.001Z,37.53
2018-10-21T11:21:34.226Z,38.50
2018-10-21T11:24:02.484Z,44.77
2018-10-21T11:26:30.709Z,41.20
2018-10-21T11:28:58.993Z,40.73
2018-10-21T11:31:27.245Z,38.03
2018-10-21T11:33:55.589Z,43.73
2018-10-21T11:36:23.761Z,37.03
2018-10-21T11:38:52.181Z,35.53
2018-10-21T11:41:20.513Z,38.03
2018-10-21T11:43:48.760Z,38.57
2018-10-21T11:46:17.126Z,40.80
2018-10-21T11:48:45.290Z,35.33
2018-10-21T11:51:13.560Z,41.07
2018-10-21T11:53:41.857Z,39.93
2018-10-21T11:56:10.122Z,35.87
2018-10-21T11:58:38.368Z,36.60
2018-10-21T12:01:06.701Z,39.03
2018-10-21T12:03:34.958Z,37.57
2018-10-21T12:06:03.224Z,39.27
2018-10-21T12:08:31.472Z,42.43
2018-10-21T12:10:59.746Z,36.90
2018-10-21T12:13:27.973Z,37.63
2018-10-21T12:15:56.278Z,37.93
2018-10-21T12:18:24.540Z,38.07
2018-10-21T12:20:52.754Z,40.17
2018-10-21T12:23:21.043Z,43.47
2018-10-21T12:25:49.289Z,41.03
2018-10-21T12:28:17.562Z,40.63
2018-10-21T12:30:45.767Z,42.20
2018-10-21T12:33:14.024Z,40.53
2018-10-21T12:35:42.252Z,41.20
2018-10-21T12:38:10.559Z,39.67
2018-10-21T12:40:38.775Z,36.93
2018-10-21T12:43:07.095Z,37.90
2018-10-21T12:45:35.683Z,40.53
2018-10-21T12:48:03.809Z,40.23
2018-10-21T12:50:32.089Z,41.97
2018-10-21T12:53:00.400Z,40.00
2018-10-21T12:55:28.600Z,33.07
2018-10-21T12:57:57.041Z,32.03
2018-10-21T13:00:25.287Z,29.13
2018-10-21T13:02:53.569Z,32.57
2018-10-21T13:05:21.862Z,29.47
2018-10-21T13:07:50.134Z,27.73
2018-10-21T13:10:18.453Z,29.20
2018-10-21T13:12:46.756Z,30.40
2018-10-21T13:15:14.952Z,26.40
2018-10-21T13:17:43.356Z,29.17
2018-10-21T13:20:11.733Z,27.07
2018-10-21T13:22:40.006Z,24.10
2018-10-21T13:25:08.421Z,25.03
2018-10-21T13:27:36.629Z,25.43
2018-10-21T13:30:05.706Z,24.80
2018-10-21T13:32:34.033Z,21.50
2018-10-21T13:35:02.314Z,22.40
2018-10-21T13:37:30.586Z,21.93
2018-10-21T13:39:58.913Z,23.60
2018-10-21T13:42:27.340Z,23.63
2018-10-21T13:44:55.625Z,25.20
2018-10-21T13:47:23.880Z,19.60
2018-10-21T13:49:52.191Z,22.47
2018-10-21T13:52:20.510Z,20.83
2018-10-21T13:54:48.776Z,26.00
2018-10-21T13:57:17.168Z,25.00
2018-10-21T13:59:45.564Z,24.57
2018-10-21T14:02:13.972Z,27.00
2018-10-21T14:04:42.430Z,28.87
2018-10-21T14:07:10.865Z,29.90
2018-10-21T14:09:39.169Z,30.77
2018-10-21T14:12:07.430Z,30.43
2018-10-21T14:14:35.954Z,25.03
2018-10-21T14:17:04.350Z,24.80
2018-10-21T14:19:32.711Z,26.43
2018-10-21T14:22:01.022Z,25.93
2018-10-21T14:24:29.526Z,24.13
2018-10-21T14:26:58.065Z,28.27
2018-10-21T14:29:26.444Z,20.87
2018-10-21T14:31:54.733Z,24.03
2018-10-21T14:34:23.149Z,24.80
2018-10-21T14:36:51.538Z,24.17
2018-10-21T14:39:19.876Z,23.50
2018-10-21T14:41:48.263Z,23.17
2018-10-21T14:44:16.625Z,23.17
2018-10-21T14:46:44.910Z,24.43
2018-10-21T14:49:13.269Z,25.40
2018-10-21T14:51:41.523Z,23.93
2018-10-21T14:54:09.884Z,19.77
2018-10-21T14:56:38.101Z,21.43
2018-10-21T14:59:06.495Z,19.03
2018-10-21T15:01:34.811Z,23.77
2018-10-21T15:04:03.248Z,23.73
2018-10-21T15:06:31.528Z,24.43
2018-10-21T15:08:59.795Z,23.73
2018-10-21T15:11:28.122Z,20.90
2018-10-21T15:13:56.480Z,21.97
2018-10-21T15:16:24.749Z,21.13
2018-10-21T15:18:53.095Z,23.43
2018-10-21T15:21:21.600Z,20.90
2018-10-21T15:23:50.077Z,24.37
2018-10-21T15:26:18.368Z,21.23
2018-10-21T15:28:46.622Z,21.20
2018-10-21T15:31:15.144Z,21.17
2018-10-21T15:33:43.691Z,19.80
2018-10-21T15:36:12.114Z,21.30
2018-10-21T15:38:40.461Z,24.00
2018-10-21T15:41:09.178Z,27.63
2018-10-21T15:43:37.609Z,24.47
2018-10-21T15:46:06.235Z,24.13
2018-10-21T15:48:34.521Z,31.73
2018-10-21T15:51:03.269Z,33.80
2018-10-21T15:53:31.534Z,25.37
2018-10-21T15:55:59.925Z,23.03
2018-10-21T15:58:28.207Z,24.37
2018-10-21T16:00:56.469Z,29.20
2018-10-21T16:03:24.919Z,25.23
2018-10-21T16:05:53.276Z,23.53
2018-10-21T16:08:21.555Z,23.57
2018-10-21T16:10:49.838Z,21.23
2018-10-21T16:13:18.079Z,21.23
2018-10-21T16:15:46.326Z,25.73
2018-10-21T16:18:14.713Z,19.97
2018-10-21T16:20:43.007Z,23.70
2018-10-21T16:23:11.313Z,22.10
2018-10-21T16:25:39.668Z,20.70
2018-10-21T16:28:08.018Z,23.80
2018-10-21T16:30:36.309Z,19.17
2018-10-21T16:33:05.060Z,25.00
2018-10-21T16:35:33.476Z,23.87
2018-10-21T16:38:01.728Z,23.60
2018-10-21T16:40:30.221Z,32.67
2018-10-21T16:42:58.601Z,26.37
2018-10-21T16:45:26.980Z,32.50
2018-10-21T16:47:55.612Z,22.87
2018-10-21T16:50:23.968Z,25.97
2018-10-21T16:52:52.309Z,29.27
2018-10-21T16:55:20.619Z,28.27
2018-10-21T16:57:48.873Z,32.60
2018-10-21T17:00:18.344Z,29.97
2018-10-21T17:02:46.554Z,29.57
2018-10-21T17:05:14.917Z,31.10
2018-10-21T17:07:43.100Z,32.27
2018-10-21T17:10:12.121Z,28.80
2018-10-21T17:12:40.105Z,30.33
2018-10-21T17:15:09.557Z,28.87
2018-10-21T17:17:38.366Z,31.67
2018-10-21T17:20:09.113Z,31.90
2018-10-21T17:22:37.650Z,28.37
2018-10-21T17:25:06.494Z,28.53
2018-10-21T17:27:34.822Z,30.20
2018-10-21T17:30:03.201Z,34.03
2018-10-21T17:32:31.506Z,31.03
2018-10-21T17:34:59.768Z,30.63
2018-10-21T17:37:28.161Z,30.00
2018-10-21T17:39:56.482Z,29.53
2018-10-21T17:42:24.737Z,29.77
2018-10-21T17:44:52.981Z,27.60
2018-10-21T17:47:21.253Z,34.63
2018-10-21T17:49:49.567Z,28.43
2018-10-21T17:52:17.987Z,32.67
2018-10-21T17:54:46.165Z,32.63
2018-10-21T17:57:14.580Z,28.00
2018-10-21T17:59:42.904Z,29.40
2018-10-21T18:02:11.230Z,27.43
2018-10-21T18:04:39.533Z,29.47
2018-10-21T18:07:07.898Z,29.73
2018-10-21T18:09:36.184Z,28.73
2018-10-21T18:12:04.461Z,29.37
2018-10-21T18:14:32.800Z,25.93
2018-10-21T18:17:01.377Z,26.87
2018-10-21T18:19:29.637Z,27.93
2018-10-21T18:21:57.917Z,28.17
2018-10-21T18:24:26.212Z,28.87
2018-10-21T18:26:54.565Z,28.10
2018-10-21T18:29:22.869Z,26.37
2018-10-21T18:31:51.226Z,27.77
2018-10-21T18:34:19.465Z,28.70
2018-10-21T18:36:47.721Z,26.83
2018-10-21T18:39:15.998Z,26.03
2018-10-21T18:41:44.261Z,25.63
2018-10-21T18:44:12.553Z,30.37
2018-10-21T18:46:40.838Z,25.83
2018-10-21T18:49:09.184Z,24.93
2018-10-21T18:51:37.578Z,27.70
2018-10-21T18:54:05.900Z,26.80
2018-10-21T18:56:34.245Z,25.00
2018-10-21T18:59:02.522Z,26.17
2018-10-21T19:01:30.953Z,25.53
2018-10-21T19:03:59.426Z,30.37
2018-10-21T19:06:27.632Z,25.13
2018-10-21T19:08:55.893Z,26.80
2018-10-21T19:11:24.181Z,31.03
2018-10-21T19:13:52.690Z,27.60
2018-10-21T19:16:21.230Z,25.30
2018-10-21T19:18:49.529Z,24.07
2018-10-21T19:21:17.795Z,25.60
2018-10-21T19:23:46.214Z,22.90
2018-10-21T19:26:14.637Z,23.60
2018-10-21T19:28:43.017Z,29.50
2018-10-21T19:31:11.371Z,23.10
2018-10-21T19:33:39.697Z,24.10
2018-10-21T19:36:07.950Z,22.33
2018-10-21T19:38:36.226Z,24.40
2018-10-21T19:41:04.538Z,25.63
2018-10-21T19:43:32.858Z,22.40
2018-10-21T19:46:01.163Z,24.27
2018-10-21T19:48:29.508Z,23.37
2018-10-21T19:50:57.827Z,22.47
2018-10-21T19:53:26.101Z,19.37
2018-10-21T19:55:54.368Z,23.57
2018-10-21T19:58:22.755Z,19.27
2018-10-21T20:00:51.025Z,23.07
2018-10-21T20:03:19.294Z,22.30
2018-10-21T20:05:47.653Z,26.07
2018-10-21T20:08:15.921Z,21.63
2018-10-21T20:10:44.187Z,21.13
2018-10-21T20:13:12.604Z,22.23
2018-10-21T20:15:40.965Z,21.30
2018-10-21T20:18:09.256Z,24.73
2018-10-21T20:20:37.587Z,19.73
2018-10-21T20:23:06.186Z,22.97
2018-10-21T20:25:34.510Z,22.60
2018-10-21T20:28:02.823Z,20.73
2018-10-21T20:30:31.093Z,21.37
2018-10-21T20:32:59.455Z,21.60
2018-10-21T20:35:27.677Z,20.53
2018-10-21T20:37:55.993Z,21.63
2018-10-21T20:40:24.271Z,22.50
2018-10-21T20:42:52.561Z,21.00
2018-10-21T20:45:20.833Z,22.30
2018-10-21T20:47:49.105Z,19.00
2018-10-21T20:50:17.397Z,18.10
2018-10-21T20:52:45.684Z,22.90
2018-10-21T20:55:13.937Z,18.73
2018-10-21T20:57:42.206Z,21.43
2018-10-21T21:00:10.509Z,18.90
2018-10-21T21:02:38.758Z,18.50
2018-10-21T21:05:08.175Z,18.63
2018-10-21T21:07:36.444Z,18.37
2018-10-21T21:10:05.883Z,18.17
2018-10-21T21:12:34.128Z,18.10
2018-10-21T21:15:02.501Z,19.53
2018-10-21T21:17:30.793Z,18.80
2018-10-21T21:19:59.073Z,19.87
2018-10-21T21:22:27.383Z,19.53
2018-10-21T21:24:55.641Z,18.47
2018-10-21T21:27:23.917Z,21.83
2018-10-21T21:29:52.221Z,17.80
2018-10-21T21:32:20.481Z,21.67
2018-10-21T21:34:48.766Z,20.40
2018-10-21T21:37:17.023Z,24.00
2018-10-21T21:39:45.298Z,21.33
2018-10-21T21:42:13.685Z,25.17
2018-10-21T21:44:41.877Z,24.57
2018-10-21T21:47:10.172Z,22.27
2018-10-21T21:49:38.449Z,21.60
2018-10-21T21:52:06.752Z,22.03
2018-10-21T21:54:34.965Z,24.90
2018-10-21T21:57:03.297Z,26.57
2018-10-21T21:59:31.626Z,26.40
2018-10-21T22:01:59.902Z,21.57
2018-10-21T22:04:28.160Z,23.27
2018-10-21T22:06:56.433Z,23.80
2018-10-21T22:09:24.757Z,25.23
2018-10-21T22:11:53.091Z,24.73
2018-10-21T22:14:21.396Z,25.60
2018-10-21T22:16:49.749Z,24.13
2018-10-21T22:19:18.041Z,29.33
2018-10-21T22:21:46.304Z,27.17
2018-10-21T22:24:14.587Z,27.20
2018-10-21T22:26:42.960Z,31.87
2018-10-21T22:29:11.247Z,26.53
2018-10-21T22:31:39.532Z,30.43
2018-10-21T22:34:07.905Z,32.43
2018-10-21T22:36:36.090Z,32.13
2018-10-21T22:39:05.421Z,31.20
2018-10-21T22:41:33.673Z,29.90
2018-10-21T22:44:01.963Z,33.90
2018-10-21T22:46:30.262Z,31.70
2018-10-21T22:48:58.473Z,34.83
2018-10-21T22:51:26.757Z,31.03
2018-10-21T22:53:55.155Z,34.97
2018-10-21T22:56:23.409Z,34.93
2018-10-21T22:58:51.871Z,37.73
2018-10-21T23:01:20.157Z,33.27
2018-10-21T23:03:48.548Z,32.17
2018-10-21T23:06:16.927Z,33.97
2018-10-21T23:08:45.092Z,33.30
2018-10-21T23:11:13.329Z,31.27
2018-10-21T23:13:41.593Z,35.10
2018-10-21T23:16:10.046Z,34.83
2018-10-21T23:18:38.290Z,27.57
2018-10-21T23:21:06.541Z,32.63
2018-10-21T23:23:34.830Z,31.90
2018-10-21T23:26:03.106Z,31.87
2018-10-21T23:28:31.385Z,32.67
2018-10-21T23:30:59.729Z,27.67
2018-10-21T23:33:28.081Z,28.97
2018-10-21T23:35:56.460Z,31.63
2018-10-21T23:38:24.800Z,33.57
2018-10-21T23:40:53.177Z,28.27
2018-10-21T23:43:21.432Z,29.20
2018-10-21T23:45:49.672Z,32.10
2018-10-21T23:48:17.979Z,32.23
2018-10-21T23:50:46.213Z,33.33
2018-10-21T23:53:14.489Z,27.70
2018-10-21T23:55:42.917Z,31.23
2018-10-21T23:58:11.230Z,30.63
